VLG6DY LEBL-LEPA
Flight info
| Callsign | VLG6DY |
|---|---|
| Flight time | 0h 24m |
| Altitude | 19000 |
| Route | LARPA N859 TOLSO |
| Aircraft | A320/M-SDE3FGHIRWY/LB1 |
Departure
| Time | 2026-05-06 19:50 |
|---|---|
| Airport | Josep Tarradellas Barcelona-El Prat Airport (LEBL) |
Arrival
| Time | 2026-05-06 20:14 |
|---|---|
| Airport | Palma de Mallorca Airport (LEPA) |
| Time | Latitude | Longitude | Altitude | Speed | Heading |
|---|---|---|---|---|---|
| 2026-05-06 19:24 | 41.29361 | 2.07815 | 17 ft | 0 kts | 65° |
| 2026-05-06 19:29 | 41.29360 | 2.07815 | 17 ft | 0 kts | 65° |
| 2026-05-06 19:45 | 41.29365 | 2.07829 | 18 ft | 9 kts | 65° |
| 2026-05-06 19:45 | 41.29433 | 2.07857 | 16 ft | 14 kts | 17° |
| 2026-05-06 19:45 | 41.29478 | 2.07966 | 15 ft | 17 kts | 63° |
| 2026-05-06 19:46 | 41.29550 | 2.08171 | 15 ft | 27 kts | 72° |
| 2026-05-06 19:46 | 41.29606 | 2.08410 | 17 ft | 27 kts | 64° |
| 2026-05-06 19:46 | 41.29580 | 2.08539 | 17 ft | 14 kts | 156° |
| 2026-05-06 19:46 | 41.29453 | 2.08616 | 14 ft | 25 kts | 155° |
| 2026-05-06 19:47 | 41.29285 | 2.08719 | 18 ft | 26 kts | 155° |
| 2026-05-06 19:47 | 41.29111 | 2.08824 | 16 ft | 28 kts | 156° |
| 2026-05-06 19:47 | 41.28946 | 2.08950 | 16 ft | 24 kts | 104° |
| 2026-05-06 19:47 | 41.29004 | 2.09147 | 17 ft | 24 kts | 64° |
| 2026-05-06 19:48 | 41.29079 | 2.09359 | 19 ft | 26 kts | 65° |
| 2026-05-06 19:48 | 41.29156 | 2.09592 | 17 ft | 31 kts | 66° |
| 2026-05-06 19:48 | 41.29249 | 2.09861 | 17 ft | 32 kts | 66° |
| 2026-05-06 19:48 | 41.29267 | 2.10049 | 16 ft | 14 kts | 116° |
| 2026-05-06 19:49 | 41.29237 | 2.10182 | 15 ft | 16 kts | 87° |
| 2026-05-06 19:49 | 41.29241 | 2.10316 | 15 ft | 8 kts | 147° |
| 2026-05-06 19:49 | 41.29184 | 2.10223 | 17 ft | 40 kts | 248° |
| 2026-05-06 19:49 | 41.28965 | 2.09582 | 19 ft | 109 kts | 245° |
| 2026-05-06 19:50 | 41.28571 | 2.08430 | 35 ft | 161 kts | 247° |
| 2026-05-06 19:50 | 41.28089 | 2.07084 | 606 ft | 162 kts | 237° |
| 2026-05-06 19:50 | 41.27247 | 2.06089 | 1161 ft | 170 kts | 202° |
| 2026-05-06 19:50 | 41.26009 | 2.05912 | 1552 ft | 192 kts | 182° |
| 2026-05-06 19:51 | 41.24607 | 2.05887 | 2000 ft | 209 kts | 182° |
| 2026-05-06 19:51 | 41.23123 | 2.05852 | 2694 ft | 216 kts | 184° |
| 2026-05-06 19:51 | 41.21596 | 2.05866 | 3371 ft | 230 kts | 173° |
| 2026-05-06 19:51 | 41.20027 | 2.06610 | 3771 ft | 257 kts | 157° |
| 2026-05-06 19:52 | 41.18346 | 2.07607 | 4439 ft | 270 kts | 158° |
| 2026-05-06 19:52 | 41.16580 | 2.08542 | 5273 ft | 276 kts | 161° |
| 2026-05-06 19:52 | 41.14751 | 2.09407 | 6188 ft | 280 kts | 161° |
| 2026-05-06 19:52 | 41.12898 | 2.10245 | 7059 ft | 283 kts | 162° |
| 2026-05-06 19:53 | 41.11019 | 2.11087 | 7906 ft | 287 kts | 162° |
| 2026-05-06 19:53 | 41.09113 | 2.11951 | 8740 ft | 292 kts | 162° |
| 2026-05-06 19:53 | 41.07173 | 2.12839 | 9592 ft | 296 kts | 162° |
| 2026-05-06 19:53 | 41.05209 | 2.13745 | 10281 ft | 306 kts | 162° |
| 2026-05-06 19:54 | 41.03117 | 2.14711 | 10547 ft | 330 kts | 162° |
| 2026-05-06 19:54 | 41.00902 | 2.15737 | 11055 ft | 341 kts | 162° |
| 2026-05-06 19:54 | 40.98644 | 2.16790 | 11782 ft | 346 kts | 162° |
| 2026-05-06 19:54 | 40.96365 | 2.17858 | 12546 ft | 350 kts | 162° |
| 2026-05-06 19:55 | 40.94058 | 2.18938 | 13314 ft | 353 kts | 162° |
| 2026-05-06 19:55 | 40.91728 | 2.20023 | 14042 ft | 356 kts | 162° |
| 2026-05-06 19:55 | 40.89375 | 2.21114 | 14712 ft | 359 kts | 163° |
| 2026-05-06 19:55 | 40.87003 | 2.22208 | 15383 ft | 362 kts | 163° |
| 2026-05-06 19:56 | 40.84650 | 2.23289 | 16040 ft | 365 kts | 164° |
| 2026-05-06 19:56 | 40.82241 | 2.24397 | 16696 ft | 368 kts | 164° |
| 2026-05-06 19:56 | 40.79812 | 2.25516 | 17344 ft | 371 kts | 165° |
| 2026-05-06 19:56 | 40.77359 | 2.26651 | 17993 ft | 375 kts | 165° |
| 2026-05-06 19:57 | 40.74891 | 2.27793 | 18572 ft | 378 kts | 165° |
| 2026-05-06 19:57 | 40.72397 | 2.28944 | 18874 ft | 380 kts | 165° |
| 2026-05-06 19:57 | 40.69873 | 2.29857 | 18954 ft | 368 kts | 178° |
| 2026-05-06 19:57 | 40.67360 | 2.30042 | 18973 ft | 359 kts | 183° |
| 2026-05-06 19:58 | 40.64829 | 2.30145 | 18974 ft | 373 kts | 183° |
| 2026-05-06 19:58 | 40.62163 | 2.30237 | 18972 ft | 394 kts | 182° |
| 2026-05-06 19:58 | 40.59359 | 2.30384 | 18973 ft | 412 kts | 181° |
| 2026-05-06 19:58 | 40.56438 | 2.30617 | 18973 ft | 428 kts | 180° |
| 2026-05-06 19:59 | 40.53427 | 2.30909 | 18973 ft | 438 kts | 179° |
| 2026-05-06 19:59 | 40.50373 | 2.31230 | 18971 ft | 440 kts | 179° |
| 2026-05-06 19:59 | 40.47322 | 2.31549 | 18973 ft | 441 kts | 179° |
| 2026-05-06 19:59 | 40.44261 | 2.31855 | 18761 ft | 440 kts | 179° |
| 2026-05-06 20:00 | 40.41217 | 2.32147 | 18527 ft | 438 kts | 180° |
| 2026-05-06 20:00 | 40.38180 | 2.32425 | 18293 ft | 437 kts | 180° |
| 2026-05-06 20:00 | 40.35152 | 2.32690 | 18028 ft | 435 kts | 180° |
| 2026-05-06 20:00 | 40.32134 | 2.32953 | 17758 ft | 434 kts | 180° |
| 2026-05-06 20:01 | 40.29130 | 2.33217 | 17492 ft | 432 kts | 179° |
| 2026-05-06 20:01 | 40.26130 | 2.33481 | 17229 ft | 431 kts | 179° |
| 2026-05-06 20:01 | 40.23138 | 2.33745 | 16932 ft | 429 kts | 179° |
| 2026-05-06 20:01 | 40.20175 | 2.34010 | 16177 ft | 425 kts | 179° |
| 2026-05-06 20:02 | 40.17243 | 2.34273 | 15461 ft | 420 kts | 179° |
| 2026-05-06 20:02 | 40.14340 | 2.34532 | 14784 ft | 416 kts | 179° |
| 2026-05-06 20:02 | 40.11467 | 2.34788 | 14127 ft | 412 kts | 178° |
| 2026-05-06 20:02 | 40.08620 | 2.35040 | 13463 ft | 408 kts | 178° |
| 2026-05-06 20:03 | 40.05804 | 2.35290 | 12834 ft | 403 kts | 178° |
| 2026-05-06 20:03 | 40.03025 | 2.35535 | 12237 ft | 397 kts | 178° |
| 2026-05-06 20:03 | 40.00294 | 2.35774 | 11627 ft | 391 kts | 178° |
| 2026-05-06 20:03 | 39.97614 | 2.36011 | 11294 ft | 378 kts | 178° |
| 2026-05-06 20:04 | 39.95050 | 2.36244 | 11162 ft | 359 kts | 178° |
| 2026-05-06 20:04 | 39.92689 | 2.36463 | 11033 ft | 330 kts | 178° |
| 2026-05-06 20:04 | 39.90485 | 2.36665 | 10871 ft | 306 kts | 178° |
| 2026-05-06 20:04 | 39.88401 | 2.36851 | 10404 ft | 296 kts | 178° |
| 2026-05-06 20:05 | 39.86369 | 2.37027 | 10132 ft | 292 kts | 178° |
| 2026-05-06 20:05 | 39.84337 | 2.37200 | 9901 ft | 291 kts | 178° |
| 2026-05-06 20:05 | 39.82307 | 2.37373 | 9776 ft | 292 kts | 178° |
| 2026-05-06 20:05 | 39.80937 | 2.37491 | 9678 ft | 292 kts | 178° |
| 2026-05-06 20:06 | 39.78917 | 2.37664 | 9555 ft | 291 kts | 178° |
| 2026-05-06 20:06 | 39.76906 | 2.37836 | 9327 ft | 288 kts | 177° |
| 2026-05-06 20:06 | 39.74914 | 2.38011 | 8946 ft | 286 kts | 177° |
| 2026-05-06 20:06 | 39.72963 | 2.38183 | 8565 ft | 284 kts | 177° |
| 2026-05-06 20:07 | 39.70994 | 2.38358 | 8175 ft | 282 kts | 177° |
| 2026-05-06 20:07 | 39.69040 | 2.38531 | 7774 ft | 280 kts | 177° |
| 2026-05-06 20:07 | 39.67109 | 2.38684 | 7553 ft | 272 kts | 177° |
| 2026-05-06 20:07 | 39.65300 | 2.39160 | 7426 ft | 261 kts | 157° |
| 2026-05-06 20:08 | 39.63771 | 2.40322 | 7304 ft | 249 kts | 147° |
| 2026-05-06 20:08 | 39.62350 | 2.41525 | 7155 ft | 239 kts | 147° |
| 2026-05-06 20:08 | 39.60953 | 2.42706 | 6769 ft | 241 kts | 147° |
| 2026-05-06 20:08 | 39.59544 | 2.43896 | 6094 ft | 245 kts | 147° |
| 2026-05-06 20:09 | 39.58079 | 2.45128 | 5218 ft | 255 kts | 147° |
| 2026-05-06 20:09 | 39.56582 | 2.46384 | 4568 ft | 254 kts | 147° |
| 2026-05-06 20:09 | 39.55094 | 2.47632 | 3847 ft | 255 kts | 146° |
| 2026-05-06 20:09 | 39.53614 | 2.48873 | 3359 ft | 246 kts | 146° |
| 2026-05-06 20:10 | 39.52233 | 2.50031 | 3112 ft | 230 kts | 146° |
| 2026-05-06 20:10 | 39.50911 | 2.51138 | 2722 ft | 223 kts | 146° |
| 2026-05-06 20:10 | 39.49701 | 2.52352 | 2332 ft | 216 kts | 130° |
| 2026-05-06 20:10 | 39.48923 | 2.53868 | 2308 ft | 197 kts | 113° |
| 2026-05-06 20:11 | 39.48554 | 2.55513 | 2332 ft | 182 kts | 97° |
| 2026-05-06 20:11 | 39.48548 | 2.57069 | 2303 ft | 166 kts | 83° |
| 2026-05-06 20:11 | 39.48847 | 2.58565 | 2170 ft | 176 kts | 69° |
| 2026-05-06 20:11 | 39.49438 | 2.59958 | 1984 ft | 179 kts | 60° |
| 2026-05-06 20:12 | 39.50093 | 2.61333 | 1747 ft | 176 kts | 60° |
| 2026-05-06 20:12 | 39.50712 | 2.62631 | 1517 ft | 162 kts | 60° |
| 2026-05-06 20:12 | 39.51284 | 2.63835 | 1323 ft | 157 kts | 60° |
| 2026-05-06 20:12 | 39.51844 | 2.65017 | 1113 ft | 149 kts | 60° |
| 2026-05-06 20:13 | 39.52372 | 2.66129 | 925 ft | 142 kts | 59° |
| 2026-05-06 20:13 | 39.52884 | 2.67209 | 745 ft | 140 kts | 59° |
| 2026-05-06 20:13 | 39.53395 | 2.68284 | 572 ft | 140 kts | 58° |
| 2026-05-06 20:13 | 39.53913 | 2.69351 | 372 ft | 140 kts | 60° |
| 2026-05-06 20:14 | 39.54420 | 2.70421 | 194 ft | 139 kts | 59° |
| 2026-05-06 20:14 | 39.54917 | 2.71481 | 41 ft | 133 kts | 59° |
| 2026-05-06 20:14 | 39.55320 | 2.72347 | 37 ft | 88 kts | 59° |
| 2026-05-06 20:14 | 39.55552 | 2.72839 | 37 ft | 44 kts | 58° |
| 2026-05-06 20:15 | 39.55700 | 2.73166 | 38 ft | 39 kts | 69° |
| 2026-05-06 20:15 | 39.55722 | 2.73475 | 38 ft | 16 kts | 89° |
| 2026-05-06 20:15 | 39.55656 | 2.73507 | 38 ft | 11 kts | 195° |
| 2026-05-06 20:15 | 39.55596 | 2.73523 | 38 ft | 9 kts | 155° |
| 2026-05-06 20:16 | 39.55514 | 2.73586 | 38 ft | 16 kts | 150° |
| 2026-05-06 20:16 | 39.55414 | 2.73663 | 38 ft | 18 kts | 149° |
| 2026-05-06 20:16 | 39.55302 | 2.73750 | 38 ft | 20 kts | 149° |
| 2026-05-06 20:16 | 39.55178 | 2.73848 | 38 ft | 22 kts | 148° |
| 2026-05-06 20:17 | 39.55044 | 2.73956 | 38 ft | 24 kts | 148° |
| 2026-05-06 20:17 | 39.54938 | 2.73989 | 38 ft | 11 kts | 238° |
| 2026-05-06 20:17 | 39.54891 | 2.73967 | 38 ft | 13 kts | 151° |
| 2026-05-06 20:17 | 39.54796 | 2.73962 | 38 ft | 19 kts | 234° |
| 2026-05-06 20:18 | 39.54723 | 2.73808 | 38 ft | 21 kts | 238° |
| 2026-05-06 20:18 | 39.54651 | 2.73657 | 38 ft | 13 kts | 243° |
| 2026-05-06 20:18 | 39.54622 | 2.73582 | 38 ft | 7 kts | 242° |
| 2026-05-06 20:18 | 39.54596 | 2.73530 | 38 ft | 6 kts | 236° |
| 2026-05-06 20:19 | 39.54573 | 2.73486 | 38 ft | 6 kts | 236° |
| 2026-05-06 20:19 | 39.54558 | 2.73450 | 38 ft | 0 kts | 242° |
| 2026-05-06 20:19 | 39.54554 | 2.73444 | 38 ft | 4 kts | 234° |
| 2026-05-06 20:20 | 39.54537 | 2.73412 | 38 ft | 4 kts | 237° |
| 2026-05-06 20:20 | 39.54520 | 2.73379 | 37 ft | 5 kts | 237° |
| 2026-05-06 20:20 | 39.54500 | 2.73336 | 38 ft | 7 kts | 239° |
| 2026-05-06 20:20 | 39.54499 | 2.73284 | 38 ft | 2 kts | 332° |
| 2026-05-06 20:21 | 39.54525 | 2.73281 | 38 ft | 8 kts | 352° |
| 2026-05-06 20:21 | 39.54542 | 2.73276 | 38 ft | 0 kts | 345° |